Time;durP1;ratioP1;P1;durP2;ratioP2;P2;SDS_P1;SDS_P2;PMS_P1;PMS_P2;Temp;Humidity;BMP_temperature;BMP_pressure;BME280_temperature;BME280_humidity;BME280_pressure;Samples;Min_cycle;Max_cycle;Signal;HPM_P1;HPM_P2
2022/01/11 00:01:33;;;;;;;82.70;30.30;;;;;;;-6.44;67.69;101728.36;130192;1266;245346;-78
2022/01/11 00:04:38;;;;;;;77.00;28.90;;;;;;;-6.45;67.72;101730.27;130338;1267;108901;-77
2022/01/11 00:07:44;;;;;;;85.30;31.40;;;;;;;-6.46;67.67;101732.36;130419;1266;109198;-78
2022/01/11 00:10:52;;;;;;;70.20;29.10;;;;;;;-6.47;67.42;101735.13;130494;1267;108676;-76
2022/01/11 00:13:58;;;;;;;80.40;29.60;;;;;;;-6.48;67.69;101741.02;130413;1267;108791;-78
2022/01/11 00:17:04;;;;;;;80.20;29.40;;;;;;;-6.46;67.86;101744.11;130339;1266;108865;-77
2022/01/11 00:20:13;;;;;;;76.50;28.40;;;;;;;-6.41;67.62;101741.31;130389;1267;108769;-78
2022/01/11 00:26:42;;;;;;;65.10;26.00;;;;;;;-6.27;67.46;101734.84;130520;1266;109102;-75
2022/01/11 00:29:51;;;;;;;76.80;29.50;;;;;;;-6.19;67.21;101737.73;130407;1267;108684;-76
2022/01/11 00:33:04;;;;;;;64.20;26.20;;;;;;;-6.20;67.22;101740.33;130396;1266;108994;-75
2022/01/11 00:36:11;;;;;;;64.90;25.80;;;;;;;-6.15;67.14;101746.36;130352;1267;107825;-76
2022/01/11 00:39:17;;;;;;;66.80;26.90;;;;;;;-6.09;67.01;101751.17;130407;1266;108901;-76
2022/01/11 00:42:22;;;;;;;74.20;28.30;;;;;;;-6.07;67.51;101754.61;130557;1267;107251;-76
2022/01/11 00:45:29;;;;;;;74.20;28.00;;;;;;;-6.09;66.91;101756.20;130411;1266;110001;-75
2022/01/11 00:48:35;;;;;;;75.30;28.40;;;;;;;-6.13;66.99;101752.74;130194;1267;107743;-76
2022/01/11 00:51:41;;;;;;;82.40;30.90;;;;;;;-6.16;67.05;101756.06;130418;1267;108453;-76
2022/01/11 00:54:47;;;;;;;88.90;34.30;;;;;;;-6.16;67.10;101758.50;130237;1267;108652;-73
2022/01/11 00:57:53;;;;;;;84.20;32.60;;;;;;;-6.15;67.35;101758.98;130383;1266;108869;-78
2022/01/11 01:00:58;;;;;;;92.50;34.80;;;;;;;-6.15;67.03;101757.63;130397;1267;108853;-78
2022/01/11 01:04:04;;;;;;;96.20;35.00;;;;;;;-6.19;67.28;101750.38;130358;1267;108623;-75
2022/01/11 01:07:09;;;;;;;122.80;43.00;;;;;;;-6.30;66.90;101750.79;130176;1267;108909;-77
2022/01/11 01:10:24;;;;;;;120.90;42.50;;;;;;;-6.42;67.38;101753.10;130352;1267;108813;-76
2022/01/11 01:13:30;;;;;;;126.30;46.50;;;;;;;-6.46;66.97;101749.66;130359;1267;108895;-76
2022/01/11 01:16:40;;;;;;;128.10;46.30;;;;;;;-6.52;67.01;101751.42;130444;1267;108752;-80
2022/01/11 01:19:55;;;;;;;115.00;41.80;;;;;;;-6.62;66.36;101751.13;130450;1267;108895;-79
2022/01/11 01:23:01;;;;;;;95.30;36.10;;;;;;;-6.69;66.70;101749.08;130215;1267;108837;-79
2022/01/11 01:26:06;;;;;;;92.70;33.90;;;;;;;-6.71;66.85;101754.98;130466;1267;107819;-80
2022/01/11 01:29:12;;;;;;;95.40;36.20;;;;;;;-6.76;66.90;101757.93;130461;1267;108872;-79
2022/01/11 01:32:18;;;;;;;87.50;33.10;;;;;;;-6.77;66.86;101763.14;130542;1267;107500;-80
2022/01/11 01:35:29;;;;;;;80.90;29.80;;;;;;;-6.78;67.04;101766.42;130560;1267;108809;-80
2022/01/11 01:38:34;;;;;;;77.90;27.70;;;;;;;-6.79;66.81;101763.82;130540;1267;108858;-80
2022/01/11 01:41:43;;;;;;;116.00;39.90;;;;;;;-6.78;67.00;101762.96;130541;1267;108444;-82
2022/01/11 01:44:48;;;;;;;66.20;26.00;;;;;;;-6.77;66.71;101764.17;130419;1267;109764;-80
2022/01/11 01:47:57;;;;;;;65.70;25.10;;;;;;;-6.72;66.88;101762.77;130376;1267;107803;-77
2022/01/11 01:51:03;;;;;;;67.20;24.80;;;;;;;-6.63;66.78;101766.19;130499;1267;108805;-78
2022/01/11 01:54:09;;;;;;;86.70;32.70;;;;;;;-6.54;67.17;101774.45;130404;1267;108760;-77
2022/01/11 01:57:15;;;;;;;92.80;29.70;;;;;;;-6.45;66.72;101778.05;130271;1267;108946;-79
2022/01/11 02:00:23;;;;;;;86.20;28.70;;;;;;;-6.38;66.72;101779.57;130320;1267;108491;-79
2022/01/11 02:03:31;;;;;;;85.00;29.70;;;;;;;-6.35;66.56;101784.92;130522;1267;108861;-82
2022/01/11 02:06:36;;;;;;;88.70;32.80;;;;;;;-6.34;66.62;101791.84;130362;1267;108833;-76
2022/01/11 02:09:42;;;;;;;80.90;32.40;;;;;;;-6.35;66.48;101792.38;130394;1267;108849;-77
2022/01/11 02:12:48;;;;;;;71.50;29.60;;;;;;;-6.39;66.55;101793.09;130276;1266;108783;-76
2022/01/11 02:15:54;;;;;;;73.10;27.20;;;;;;;-6.44;66.67;101795.70;130256;1267;108766;-77
2022/01/11 02:18:59;;;;;;;76.40;28.50;;;;;;;-6.49;66.55;101798.15;130405;1267;108871;-78
2022/01/11 02:22:06;;;;;;;78.50;28.20;;;;;;;-6.52;66.53;101799.72;130381;1265;108830;-77
2022/01/11 02:25:12;;;;;;;93.00;37.20;;;;;;;-6.56;66.52;101803.02;130307;1267;108854;-77
2022/01/11 02:28:20;;;;;;;83.80;33.20;;;;;;;-6.62;66.27;101800.97;130365;1267;108818;-74
2022/01/11 02:31:26;;;;;;;78.10;30.00;;;;;;;-6.69;66.06;101802.38;130308;1267;107689;-75
2022/01/11 02:34:35;;;;;;;80.30;30.20;;;;;;;-6.74;66.30;101799.11;130440;1267;108798;-75
2022/01/11 02:37:47;;;;;;;71.40;27.50;;;;;;;-6.77;66.28;101802.23;130448;1267;107386;-75
2022/01/11 02:40:54;;;;;;;71.40;28.00;;;;;;;-6.79;66.06;101799.30;130535;1267;108825;-76
2022/01/11 02:44:00;;;;;;;73.60;28.10;;;;;;;-6.84;66.37;101797.92;130320;1267;107490;-76
2022/01/11 02:47:07;;;;;;;73.10;28.10;;;;;;;-6.90;66.34;101798.81;130373;1267;108875;-77
2022/01/11 02:50:15;;;;;;;77.70;27.70;;;;;;;-6.97;66.11;101806.09;130525;1267;108667;-78
2022/01/11 02:53:24;;;;;;;71.60;24.80;;;;;;;-7.00;66.29;101808.52;130382;1267;108795;-76
2022/01/11 02:56:34;;;;;;;69.30;25.30;;;;;;;-7.01;66.36;101805.06;130317;1267;108652;-76
2022/01/11 02:59:42;;;;;;;65.30;24.40;;;;;;;-7.00;66.29;101808.01;130387;1267;108960;-75
2022/01/11 03:02:48;;;;;;;59.80;22.60;;;;;;;-6.95;66.31;101808.52;130453;1267;108741;-79
2022/01/11 03:06:02;;;;;;;60.60;24.10;;;;;;;-6.86;66.25;101810.57;130754;1267;108806;-78
2022/01/11 03:09:09;;;;;;;70.40;26.80;;;;;;;-6.76;66.39;101811.73;130476;1267;108881;-77
2022/01/11 03:12:16;;;;;;;82.80;28.60;;;;;;;-6.69;65.89;101813.45;130317;1266;109150;-77
2022/01/11 03:15:21;;;;;;;90.70;30.90;;;;;;;-6.64;66.01;101817.94;130409;1267;108781;-75
2022/01/11 03:18:31;;;;;;;85.30;29.20;;;;;;;-6.60;65.83;101819.83;130365;1267;108876;-78
2022/01/11 03:21:38;;;;;;;83.50;30.30;;;;;;;-6.59;66.09;101821.91;130552;1267;108859;-78
2022/01/11 03:24:44;;;;;;;84.00;30.50;;;;;;;-6.60;66.00;101826.40;130375;1267;108872;-77
2022/01/11 03:27:50;;;;;;;79.40;31.50;;;;;;;-6.63;65.52;101828.67;130418;1267;108691;-74
2022/01/11 03:30:57;;;;;;;112.90;35.90;;;;;;;-6.67;66.00;101832.14;130455;1267;108693;-79
2022/01/11 03:34:06;;;;;;;96.30;32.60;;;;;;;-6.75;65.53;101839.09;130398;1267;108977;-77
2022/01/11 03:37:13;;;;;;;88.90;30.90;;;;;;;-6.80;65.85;101845.15;130460;1267;108852;-79
2022/01/11 03:40:22;;;;;;;90.10;31.40;;;;;;;-6.84;66.09;101847.41;130444;1267;108650;-79
2022/01/11 03:43:27;;;;;;;79.60;29.10;;;;;;;-6.94;65.53;101844.14;130347;1267;108967;-78
2022/01/11 03:46:33;;;;;;;77.00;28.70;;;;;;;-7.07;65.83;101846.93;130430;1267;108953;-75
2022/01/11 03:49:39;;;;;;;72.60;27.50;;;;;;;-7.09;66.18;101845.04;130697;1267;107342;-76
2022/01/11 03:52:45;;;;;;;73.30;27.40;;;;;;;-7.12;65.69;101844.50;130432;1267;106931;-75
2022/01/11 03:56:21;;;;;;;71.90;28.30;;;;;;;-7.15;66.05;101845.20;130101;1267;109041;-77
2022/01/11 03:59:27;;;;;;;67.20;26.30;;;;;;;-7.17;66.25;101843.66;130371;1267;108647;-74
2022/01/11 04:02:32;;;;;;;63.30;23.60;;;;;;;-7.20;66.12;101844.69;130344;1267;107730;-76
2022/01/11 04:05:38;;;;;;;56.90;23.60;;;;;;;-7.21;66.55;101845.55;130358;1267;109142;-74
2022/01/11 04:08:44;;;;;;;63.00;22.60;;;;;;;-7.21;65.97;101846.06;130382;1267;108819;-76
2022/01/11 04:11:50;;;;;;;60.70;22.50;;;;;;;-7.14;66.23;101846.77;130362;1267;108773;-76
2022/01/11 04:14:56;;;;;;;58.20;22.30;;;;;;;-7.07;65.85;101846.23;130335;1267;108866;-75
2022/01/11 04:18:01;;;;;;;57.40;22.50;;;;;;;-7.00;65.91;101847.61;130439;1267;109189;-75
2022/01/11 04:21:07;;;;;;;70.00;25.10;;;;;;;-6.94;65.56;101856.08;130483;1267;108700;-75
2022/01/11 04:24:13;;;;;;;66.10;24.30;;;;;;;-6.86;65.67;101859.70;130364;1267;107369;-74
2022/01/11 04:27:19;;;;;;;64.20;24.50;;;;;;;-6.82;65.47;101864.36;130399;1267;108966;-76
2022/01/11 04:30:25;;;;;;;66.50;25.10;;;;;;;-6.82;65.52;101862.98;130334;1267;107663;-76
2022/01/11 04:33:32;;;;;;;73.70;26.10;;;;;;;-6.88;65.93;101866.27;130439;1267;108668;-78
2022/01/11 04:36:39;;;;;;;70.20;26.70;;;;;;;-6.92;65.45;101872.85;130390;1267;108930;-77
2022/01/11 04:39:45;;;;;;;75.80;27.20;;;;;;;-6.94;65.65;101874.23;130433;1267;107703;-76
2022/01/11 04:42:51;;;;;;;72.80;27.60;;;;;;;-6.97;65.63;101874.59;130439;1267;108872;-77
2022/01/11 04:45:56;;;;;;;78.80;28.80;;;;;;;-7.00;65.71;101878.58;130341;1267;108928;-75
2022/01/11 04:49:02;;;;;;;72.80;28.00;;;;;;;-7.05;65.69;101880.48;130331;1267;108608;-77
2022/01/11 04:52:09;;;;;;;87.10;29.20;;;;;;;-7.09;65.97;101888.79;130445;1267;108706;-77
2022/01/11 04:55:16;;;;;;;129.00;35.40;;;;;;;-7.16;65.45;101892.77;130297;1267;108947;-80
2022/01/11 04:58:23;;;;;;;104.60;33.10;;;;;;;-7.19;65.44;101897.59;130479;1267;109014;-78
2022/01/11 05:01:31;;;;;;;98.60;32.00;;;;;;;-7.22;65.63;101896.05;130476;1269;108711;-78
2022/01/11 05:04:37;;;;;;;80.30;28.90;;;;;;;-7.24;65.99;101895.19;131108;1267;108796;-79
2022/01/11 05:07:42;;;;;;;59.60;23.70;;;;;;;-7.29;65.69;101899.33;130314;1267;108670;-79
2022/01/11 05:10:48;;;;;;;59.40;22.10;;;;;;;-7.32;65.39;101902.27;130415;1267;108911;-77
2022/01/11 05:13:54;;;;;;;56.10;22.80;;;;;;;-7.31;65.72;101906.61;130595;1267;108629;-77
2022/01/11 05:17:07;;;;;;;53.00;20.50;;;;;;;-7.26;65.78;101911.61;130493;1267;108695;-75
2022/01/11 05:20:15;;;;;;;55.10;20.70;;;;;;;-7.20;65.86;101917.84;130495;1267;108800;-76
2022/01/11 05:23:20;;;;;;;54.10;21.10;;;;;;;-7.14;65.72;101912.30;130293;1267;108889;-75
2022/01/11 05:26:26;;;;;;;62.90;23.70;;;;;;;-7.06;65.67;101913.17;130305;1267;107496;-75
2022/01/11 05:29:32;;;;;;;63.30;24.30;;;;;;;-6.99;65.51;101913.17;130330;1267;108633;-75
2022/01/11 05:32:38;;;;;;;61.00;22.90;;;;;;;-6.94;65.20;101909.36;130182;1267;108958;-73
2022/01/11 05:35:43;;;;;;;61.10;22.30;;;;;;;-6.91;64.99;101910.39;130298;1267;108770;-73
2022/01/11 05:38:49;;;;;;;61.10;24.10;;;;;;;-6.92;65.26;101912.99;130325;1267;108865;-75
2022/01/11 05:41:55;;;;;;;61.30;25.00;;;;;;;-6.94;65.41;101911.10;130393;1267;108665;-75
2022/01/11 05:45:01;;;;;;;66.70;25.20;;;;;;;-6.97;65.25;101916.98;130379;1267;107745;-76
2022/01/11 05:48:08;;;;;;;65.40;25.60;;;;;;;-7.01;65.00;101919.06;130349;1268;109111;-75
2022/01/11 05:51:16;;;;;;;61.20;24.90;;;;;;;-7.06;65.19;101925.09;130362;1267;108666;-75
2022/01/11 05:54:22;;;;;;;73.90;28.20;;;;;;;-7.12;65.23;101929.78;130358;1268;108785;-75
2022/01/11 05:57:28;;;;;;;66.00;26.40;;;;;;;-7.16;65.03;101939.80;130425;1268;107750;-75
2022/01/11 06:00:34;;;;;;;72.40;27.20;;;;;;;-7.20;65.31;101940.67;130346;1268;108568;-74
2022/01/11 06:03:39;;;;;;;98.60;31.10;;;;;;;-7.26;65.20;101944.63;130333;1268;108878;-77
2022/01/11 06:06:45;;;;;;;90.60;31.50;;;;;;;-7.31;65.43;101946.88;130313;1268;108165;-77
2022/01/11 06:09:51;;;;;;;78.70;30.10;;;;;;;-7.33;65.69;101946.02;130286;1268;108866;-76
2022/01/11 06:12:56;;;;;;;72.30;27.20;;;;;;;-7.30;65.52;101951.89;130357;1268;106299;-77
2022/01/11 06:16:02;;;;;;;60.40;22.70;;;;;;;-7.28;65.56;101951.90;130263;1267;108727;-77
2022/01/11 06:19:08;;;;;;;56.50;21.30;;;;;;;-7.21;65.44;101951.04;130392;1267;108940;-75
2022/01/11 06:22:38;;;;;;;55.50;21.10;;;;;;;-7.11;65.54;101949.33;130443;1268;108736;-76
2022/01/11 06:25:44;;;;;;;50.70;21.60;;;;;;;-6.98;65.46;101954.69;130356;1267;107876;-76
2022/01/11 06:28:49;;;;;;;50.90;21.60;;;;;;;-6.85;65.68;101952.43;130286;1268;107795;-74
2022/01/11 06:31:55;;;;;;;59.80;23.30;;;;;;;-6.69;65.29;101952.95;130226;1268;108793;-76
2022/01/11 06:35:00;;;;;;;61.90;23.90;;;;;;;-6.56;65.46;101960.54;130353;1268;108709;-76
2022/01/11 06:38:07;;;;;;;55.90;22.20;;;;;;;-6.44;65.81;101966.58;130553;1268;108684;-81
2022/01/11 06:41:14;;;;;;;64.10;25.60;;;;;;;-6.34;65.55;101970.89;130509;1268;108693;-76
2022/01/11 06:44:20;;;;;;;61.40;24.90;;;;;;;-6.28;65.53;101976.59;130376;1268;108963;-77
2022/01/11 06:47:26;;;;;;;68.30;25.80;;;;;;;-6.22;65.59;101979.35;130449;1267;108771;-76
2022/01/11 06:50:32;;;;;;;68.40;26.10;;;;;;;-6.16;65.56;101979.68;130337;1267;108832;-78
2022/01/11 06:53:38;;;;;;;68.90;25.80;;;;;;;-6.11;66.13;101979.84;130374;1267;109078;-76
2022/01/11 06:56:44;;;;;;;71.60;26.80;;;;;;;-6.06;65.91;101982.95;130268;1267;108758;-76
2022/01/11 06:59:52;;;;;;;159.40;41.50;;;;;;;-6.05;65.80;101985.52;130351;1267;108730;-76
2022/01/11 07:02:59;;;;;;;219.60;56.90;;;;;;;-6.06;66.34;101988.32;130421;1266;108754;-76
2022/01/11 07:06:23;;;;;;;251.50;66.50;;;;;;;-6.00;66.70;101993.33;130525;1267;108651;-77
2022/01/11 07:09:28;;;;;;;245.80;64.00;;;;;;;-5.93;66.76;102001.59;130290;1267;108980;-75
2022/01/11 07:12:34;;;;;;;188.80;56.20;;;;;;;-5.84;66.78;102001.71;130344;1267;108757;-77
2022/01/11 07:15:40;;;;;;;150.80;47.40;;;;;;;-5.75;66.41;102004.11;130464;1267;107927;-76
2022/01/11 07:18:48;;;;;;;151.30;47.90;;;;;;;-5.68;66.90;102000.96;130360;1267;108724;-76
2022/01/11 07:21:55;;;;;;;130.50;43.80;;;;;;;-5.60;66.76;102005.27;130368;1268;108829;-77
2022/01/11 07:25:01;;;;;;;134.40;43.60;;;;;;;-5.50;66.99;102008.34;130301;1267;108776;-76
2022/01/11 07:28:11;;;;;;;135.20;44.20;;;;;;;-5.43;67.17;102013.16;130444;1267;108767;-76
2022/01/11 07:31:17;;;;;;;135.30;47.10;;;;;;;-5.34;67.30;102017.98;130357;1267;108772;-76
2022/01/11 07:34:26;;;;;;;113.80;42.50;;;;;;;-5.24;67.69;102023.82;130438;1267;108967;-76
2022/01/11 07:37:32;;;;;;;91.90;35.00;;;;;;;-5.22;68.38;102023.29;130256;1268;107337;-75
2022/01/11 07:40:41;;;;;;;79.40;32.80;;;;;;;-5.20;70.05;102024.47;130398;1267;106637;-74
2022/01/11 07:44:06;;;;;;;87.10;34.30;;;;;;;-5.20;69.61;102025.52;130348;1267;108831;-74
2022/01/11 07:47:13;;;;;;;86.10;33.90;;;;;;;-5.20;70.19;102026.90;130053;1267;108786;-74
2022/01/11 07:50:20;;;;;;;90.30;35.90;;;;;;;-5.17;69.98;102024.98;130227;1267;108672;-74
2022/01/11 07:53:27;;;;;;;85.90;34.40;;;;;;;-5.10;69.96;102027.54;130311;1267;108887;-75
2022/01/11 07:56:36;;;;;;;75.80;32.30;;;;;;;-5.03;69.88;102026.64;130293;1267;108915;-75
2022/01/11 07:59:42;;;;;;;74.20;31.20;;;;;;;-4.92;69.97;102028.46;130361;1268;108889;-75
2022/01/11 08:02:48;;;;;;;79.60;31.10;;;;;;;-4.78;69.92;102032.02;130491;1267;107747;-74
2022/01/11 08:06:06;;;;;;;77.80;31.30;;;;;;;-4.70;70.74;102041.16;130386;1267;108835;-73
2022/01/11 08:09:14;;;;;;;79.50;32.70;;;;;;;-4.68;71.98;102044.79;130292;1267;109167;-74
2022/01/11 08:12:20;;;;;;;83.40;34.30;;;;;;;-4.76;71.51;102047.45;130502;1267;108824;-74
2022/01/11 08:15:26;;;;;;;82.60;32.60;;;;;;;-4.70;71.13;102046.35;130366;1268;108734;-74
2022/01/11 08:18:32;;;;;;;76.90;32.60;;;;;;;-4.56;71.14;102044.00;130443;1268;108847;-74
2022/01/11 08:21:37;;;;;;;72.80;31.40;;;;;;;-4.51;70.92;102041.00;130303;1268;108936;-73
2022/01/11 08:24:44;;;;;;;68.00;30.60;;;;;;;-4.46;70.94;102037.66;130428;1267;108898;-74
2022/01/11 08:27:52;;;;;;;77.30;33.50;;;;;;;-4.45;71.17;102037.13;130387;1267;108722;-74
2022/01/11 08:30:58;;;;;;;72.80;32.10;;;;;;;-4.33;70.86;102041.02;130369;1267;108715;-74
2022/01/11 08:34:11;;;;;;;72.60;31.20;;;;;;;-4.23;71.06;102044.58;130379;1268;108664;-75
2022/01/11 08:37:16;;;;;;;;;;;;;;;-4.19;70.99;102045.39;130415;1267;108872;-74
2022/01/11 08:40:22;;;;;;;61.60;26.00;;;;;;;-4.18;71.08;102052.00;130315;1267;108732;-74
2022/01/11 08:43:27;;;;;;;68.30;29.10;;;;;;;-4.11;70.95;102056.27;130354;1268;108688;-74
2022/01/11 08:46:33;;;;;;;68.70;28.40;;;;;;;-3.99;71.05;102060.68;130313;1267;107708;-75
2022/01/11 08:49:44;;;;;;;63.40;28.40;;;;;;;-4.00;70.89;102063.11;130321;1268;108964;-75
2022/01/11 08:52:50;;;;;;;67.10;29.80;;;;;;;-3.94;71.10;102065.15;130171;1269;108711;-75
2022/01/11 08:56:00;;;;;;;67.40;30.70;;;;;;;-3.92;71.01;102071.05;130363;1268;108847;-74
2022/01/11 08:59:06;;;;;;;62.20;27.60;;;;;;;-4.05;71.62;102074.81;130164;1268;108779;-74
2022/01/11 09:02:14;;;;;;;65.40;29.10;;;;;;;-4.03;71.61;102081.41;130318;1268;108864;-75
2022/01/11 09:05:22;;;;;;;59.80;26.00;;;;;;;-3.84;71.63;102082.95;130439;1267;108870;-75
2022/01/11 09:08:28;;;;;;;70.90;27.90;;;;;;;-3.77;71.37;102091.23;130382;1267;109184;-74
2022/01/11 09:11:34;;;;;;;73.30;31.50;;;;;;;-3.79;71.64;102090.55;130377;1268;108899;-73
2022/01/11 09:14:40;;;;;;;71.70;30.60;;;;;;;-3.83;71.69;102090.08;130342;1267;109293;-75
2022/01/11 09:17:46;;;;;;;75.30;31.60;;;;;;;-3.83;71.74;102097.71;130428;1268;108806;-75
2022/01/11 09:20:52;;;;;;;72.30;31.20;;;;;;;-3.74;71.64;102098.16;130345;1267;107703;-73
2022/01/11 09:24:00;;;;;;;65.00;29.40;;;;;;;-3.63;71.59;102099.77;130425;1266;108718;-78
2022/01/11 09:27:10;;;;;;;69.90;31.80;;;;;;;-3.58;71.29;102101.45;130415;1268;108962;-79
2022/01/11 09:30:18;;;;;;;80.10;33.60;;;;;;;-3.57;71.75;102101.95;130427;1268;108762;-78
2022/01/11 09:33:25;;;;;;;76.70;31.90;;;;;;;-3.64;71.55;102106.91;130379;1268;108886;-75
2022/01/11 09:36:31;;;;;;;76.00;32.30;;;;;;;-3.64;71.53;102111.09;130399;1268;108871;-78
2022/01/11 09:39:39;;;;;;;71.60;30.40;;;;;;;-3.68;71.74;102106.08;130319;1266;109224;-75
2022/01/11 09:42:48;;;;;;;75.00;31.10;;;;;;;-3.74;71.91;102103.19;130417;1268;108886;-76
2022/01/11 09:45:57;;;;;;;71.90;30.10;;;;;;;-3.74;72.08;102098.15;130438;1267;108889;-75
2022/01/11 09:49:03;;;;;;;66.70;28.00;;;;;;;-3.66;71.98;102097.02;130458;1268;108922;-76
2022/01/11 09:52:10;;;;;;;71.70;30.10;;;;;;;-3.58;71.94;102091.54;130401;1268;108877;-76
2022/01/11 09:55:18;;;;;;;66.60;27.20;;;;;;;-3.38;71.97;102088.00;130381;1268;108862;-75
2022/01/11 09:58:25;;;;;;;65.00;28.40;;;;;;;-3.18;71.71;102088.78;130183;1268;110129;-74
2022/01/11 10:01:30;;;;;;;64.50;29.50;;;;;;;-3.03;71.61;102087.20;130373;1268;108756;-76
2022/01/11 10:04:55;;;;;;;69.10;31.30;;;;;;;-2.91;71.54;102085.45;130160;1268;107691;-76
2022/01/11 10:08:27;;;;;;;71.20;31.50;;;;;;;-2.82;71.65;102087.42;130335;1268;108946;-77
2022/01/11 10:11:38;;;;;;;74.20;34.20;;;;;;;-2.65;71.67;102087.00;130226;1268;108772;-76
2022/01/11 10:14:50;;;;;;;77.50;34.80;;;;;;;-2.58;71.75;102086.71;130275;1268;108950;-76
2022/01/11 10:17:55;;;;;;;68.80;30.20;;;;;;;-2.65;71.60;102084.22;130219;1268;108865;-77
2022/01/11 10:21:05;;;;;;;64.30;29.60;;;;;;;-2.70;71.75;102084.45;130328;1268;107572;-77
2022/01/11 10:24:26;;;;;;;64.30;30.10;;;;;;;-2.63;71.91;102085.74;130324;1268;108855;-77
2022/01/11 10:27:33;;;;;;;;;;;;;;;-2.50;71.99;102079.80;130455;1267;107699;-77
2022/01/11 10:30:42;;;;;;;80.50;33.40;;;;;;;-2.27;72.08;102076.81;130360;1267;108658;-77
2022/01/11 10:34:04;;;;;;;104.40;43.20;;;;;;;-2.05;71.95;102076.07;130371;1268;108847;-75
2022/01/11 10:37:17;;;;;;;310.70;145.40;;;;;;;-1.87;71.70;102075.92;130403;1267;108654;-76
2022/01/11 10:40:26;;;;;;;215.80;95.20;;;;;;;-1.75;71.76;102078.14;130379;1267;109118;-74
2022/01/11 10:43:42;;;;;;;114.70;49.00;;;;;;;-1.65;71.61;102079.84;130439;1267;108907;-78
2022/01/11 10:46:48;;;;;;;110.10;44.20;;;;;;;-1.66;71.49;102081.27;130426;1267;108749;-76
2022/01/11 10:49:56;;;;;;;93.90;39.10;;;;;;;-1.64;71.46;102082.29;130364;1268;108787;-77
2022/01/11 10:53:06;;;;;;;324.90;108.50;;;;;;;-1.54;71.16;102082.79;130436;1268;108854;-76
2022/01/11 10:56:16;;;;;;;124.40;48.00;;;;;;;-1.41;71.20;102085.85;130551;1266;108771;-76
2022/01/11 10:59:26;;;;;;;90.10;38.80;;;;;;;-1.30;71.26;102084.40;130582;1268;108748;-76
2022/01/11 11:02:32;;;;;;;94.30;42.60;;;;;;;-1.22;71.21;102083.88;130511;1266;108878;-73
2022/01/11 11:05:41;;;;;;;90.40;38.90;;;;;;;-1.13;71.17;102084.56;130350;1267;108978;-76
2022/01/11 11:08:52;;;;;;;79.30;36.20;;;;;;;-1.24;70.66;102085.15;130524;1267;108852;-76
2022/01/11 11:12:17;;;;;;;80.60;36.00;;;;;;;-1.45;70.77;102092.90;130560;1267;109247;-76
2022/01/11 11:15:53;;;;;;;83.60;36.70;;;;;;;-1.67;71.19;102090.36;130263;1267;109639;-75
2022/01/11 11:19:01;;;;;;;76.70;34.40;;;;;;;-1.68;71.75;102091.59;130610;1267;108706;-76
2022/01/11 11:22:13;;;;;;;74.80;34.50;;;;;;;-1.62;71.47;102093.76;130481;1267;109112;-75
2022/01/11 11:25:19;;;;;;;165.10;75.10;;;;;;;-1.58;71.59;102093.00;130358;1267;108111;-74
2022/01/11 11:28:25;;;;;;;110.80;47.50;;;;;;;-1.48;71.58;102099.44;130384;1267;108795;-75
2022/01/11 11:31:30;;;;;;;291.90;110.70;;;;;;;-1.50;71.50;102095.09;130332;1267;108732;-74
2022/01/11 11:34:36;;;;;;;555.60;250.40;;;;;;;-1.46;71.54;102098.34;130183;1267;107446;-76
2022/01/11 11:37:45;;;;;;;109.50;44.30;;;;;;;-1.46;71.37;102098.86;130315;1267;108949;-75
2022/01/11 11:40:55;;;;;;;166.20;62.50;;;;;;;-1.58;71.51;102102.59;130407;1265;108846;-75
2022/01/11 11:44:15;;;;;;;135.80;55.20;;;;;;;-1.55;71.64;102102.88;130456;1267;108608;-75
2022/01/11 11:47:32;;;;;;;97.40;43.40;;;;;;;-1.38;71.69;102101.84;130405;1267;108850;-75
2022/01/11 11:50:51;;;;;;;75.20;33.90;;;;;;;-1.20;71.58;102099.90;130523;1267;106210;-72
2022/01/11 11:53:57;;;;;;;84.80;37.50;;;;;;;-1.07;71.78;102096.84;130454;1267;108849;-75
2022/01/11 11:57:04;;;;;;;84.00;38.10;;;;;;;-0.99;71.44;102097.02;130417;1267;107346;-75
2022/01/11 12:00:16;;;;;;;79.90;35.40;;;;;;;-1.04;71.09;102101.66;130488;1267;108818;-75
2022/01/11 12:03:24;;;;;;;76.60;35.40;;;;;;;-1.18;71.32;102102.15;130265;1267;235249;-75
2022/01/11 12:06:31;;;;;;;79.30;36.70;;;;;;;-1.14;71.73;102098.73;130362;1268;107083;-77
2022/01/11 12:09:45;;;;;;;77.60;34.30;;;;;;;-1.06;71.60;102090.34;130324;1268;108789;-74
2022/01/11 12:12:54;;;;;;;80.30;35.40;;;;;;;-1.07;71.52;102092.13;130293;1268;107406;-77
2022/01/11 12:15:59;;;;;;;83.30;36.80;;;;;;;-1.25;71.48;102097.02;130348;1268;108658;-78
2022/01/11 12:19:06;;;;;;;84.10;37.00;;;;;;;-1.44;71.67;102101.28;130222;1268;108674;-76
2022/01/11 12:22:32;;;;;;;77.40;34.00;;;;;;;-1.65;71.97;102097.67;130147;1268;108704;-77
2022/01/11 12:25:42;;;;;;;72.00;32.90;;;;;;;-1.81;71.78;102100.56;130426;1267;108760;-83
2022/01/11 12:29:08;;;;;;;77.60;34.80;;;;;;;-1.82;72.17;102100.06;130297;1267;107741;-75
2022/01/11 12:32:14;;;;;;;90.90;35.90;;;;;;;-1.69;71.95;102100.52;130335;1266;108603;-74
2022/01/11 12:35:24;;;;;;;86.20;39.20;;;;;;;-1.53;71.98;102100.40;130319;1267;108700;-75
2022/01/11 12:38:33;;;;;;;56.40;26.60;;;;;;;-1.36;71.85;102094.99;130413;1266;109042;-73
2022/01/11 12:41:39;;;;;;;66.70;28.20;;;;;;;-1.27;71.69;102100.22;130372;1268;108722;-74
2022/01/11 12:49:01;;;;;;;62.90;29.80;;;;;;;-1.13;71.97;102103.61;130086;1266;106680;-73
2022/01/11 12:52:10;;;;;;;66.90;30.40;;;;;;;-1.17;71.73;102107.19;130382;1267;109022;-74
2022/01/11 12:55:19;;;;;;;57.70;27.40;;;;;;;-1.39;71.83;102114.27;130409;1267;108284;-72
2022/01/11 12:58:26;;;;;;;54.00;25.30;;;;;;;-1.60;72.16;102114.84;130367;1267;107238;-72
2022/01/11 13:01:32;;;;;;;52.00;26.20;;;;;;;-1.67;72.44;102110.27;130309;1267;108875;-77
2022/01/11 13:04:53;;;;;;;46.70;22.90;;;;;;;-1.67;72.27;102104.85;130290;1267;107548;-73
2022/01/11 13:07:58;;;;;;;56.80;28.30;;;;;;;-1.71;72.38;102110.34;130299;1267;108744;-75
2022/01/11 13:11:18;;;;;;;52.10;25.70;;;;;;;-1.68;72.39;102112.02;130345;1267;108857;-73
2022/01/11 13:14:37;;;;;;;51.00;24.30;;;;;;;-1.67;72.07;102109.05;130348;1267;108856;-71
2022/01/11 13:18:09;;;;;;;64.40;29.00;;;;;;;-1.64;72.30;102110.21;130359;1267;108689;-74
2022/01/11 13:21:14;;;;;;;;;;;;;;;-1.73;72.37;102106.71;130149;1267;108883;-75
2022/01/11 13:24:27;;;;;;;337.00;152.60;;;;;;;-1.75;72.62;102107.09;130364;1267;106615;-72
2022/01/11 13:27:32;;;;;;;111.10;56.20;;;;;;;-1.69;72.68;102105.77;130329;1267;108978;-75
2022/01/11 13:30:41;;;;;;;81.00;36.20;;;;;;;-1.64;72.80;102104.09;130301;1267;108672;-75
2022/01/11 13:33:50;;;;;;;60.10;27.00;;;;;;;-1.56;72.58;102102.38;130295;1267;108715;-75
2022/01/11 13:36:58;;;;;;;84.90;41.60;;;;;;;-1.49;72.42;102101.38;130339;1267;107387;-74
2022/01/11 13:40:09;;;;;;;65.90;29.90;;;;;;;-1.39;72.33;102096.45;130371;1267;108898;-75
2022/01/11 13:43:16;;;;;;;58.80;27.10;;;;;;;-1.24;72.48;102096.32;130305;1267;108750;-75
2022/01/11 13:46:24;;;;;;;51.70;26.00;;;;;;;-1.13;72.17;102090.88;130319;1267;108599;-75
2022/01/11 13:49:32;;;;;;;54.10;25.70;;;;;;;-1.06;72.57;102088.95;130329;1267;108798;-75
2022/01/11 13:52:38;;;;;;;51.80;25.30;;;;;;;-1.02;72.33;102084.66;130368;1267;108741;-74
2022/01/11 13:55:43;;;;;;;56.20;25.30;;;;;;;-0.99;72.29;102079.90;130320;1267;107624;-74
2022/01/11 13:58:53;;;;;;;53.40;25.90;;;;;;;-1.00;72.08;102080.78;130327;1267;108859;-75
2022/01/11 14:02:09;;;;;;;52.00;25.10;;;;;;;-1.02;72.37;102079.07;130324;1267;108708;-74
2022/01/11 14:05:18;;;;;;;53.50;26.00;;;;;;;-1.06;72.26;102080.56;130379;1267;109012;-74